createdAt,value
2018-05-27T00:02:25.035Z,22.00
2018-05-27T00:04:52.515Z,22.00
2018-05-27T00:07:19.988Z,22.00
2018-05-27T00:09:47.468Z,21.90
2018-05-27T00:12:15.728Z,21.90
2018-05-27T00:14:43.261Z,21.90
2018-05-27T00:17:10.724Z,21.80
2018-05-27T00:19:38.276Z,21.80
2018-05-27T00:22:05.739Z,21.80
2018-05-27T00:24:33.250Z,21.70
2018-05-27T00:27:00.715Z,21.70
2018-05-27T00:29:28.221Z,21.60
2018-05-27T00:31:55.691Z,21.60
2018-05-27T00:34:23.196Z,21.60
2018-05-27T00:36:51.467Z,21.50
2018-05-27T00:39:19.717Z,21.50
2018-05-27T00:41:47.272Z,21.50
2018-05-27T00:44:14.749Z,21.50
2018-05-27T00:46:42.986Z,21.50
2018-05-27T00:49:10.476Z,21.40
2018-05-27T00:51:37.943Z,21.40
2018-05-27T00:54:06.253Z,21.40
2018-05-27T00:56:33.715Z,21.40
2018-05-27T00:59:01.249Z,21.40
2018-05-27T01:01:29.514Z,21.30
2018-05-27T01:03:57.942Z,21.30
2018-05-27T01:06:25.408Z,21.30
2018-05-27T01:08:52.880Z,21.30
2018-05-27T01:11:20.353Z,21.30
2018-05-27T01:13:48.622Z,21.20
2018-05-27T01:16:16.089Z,21.20
2018-05-27T01:18:44.352Z,21.20
2018-05-27T01:21:11.810Z,21.20
2018-05-27T01:23:39.291Z,21.10
2018-05-27T01:26:07.615Z,21.20
2018-05-27T01:28:35.084Z,21.10
2018-05-27T01:31:02.582Z,21.10
2018-05-27T01:33:30.808Z,21.00
2018-05-27T01:35:58.378Z,21.00
2018-05-27T01:38:25.831Z,21.00
2018-05-27T01:40:53.443Z,21.10
2018-05-27T01:43:21.675Z,21.00
2018-05-27T01:45:49.153Z,21.00
2018-05-27T01:48:16.615Z,20.90
2018-05-27T01:50:44.861Z,21.00
2018-05-27T01:53:12.320Z,21.00
2018-05-27T01:55:39.809Z,21.00
2018-05-27T01:58:07.365Z,20.90
2018-05-27T02:00:35.617Z,21.00
2018-05-27T02:03:03.095Z,20.90
2018-05-27T02:05:30.605Z,20.90
2018-05-27T02:07:58.068Z,20.90
2018-05-27T02:10:25.552Z,20.90
2018-05-27T02:12:53.807Z,20.80
2018-05-27T02:15:21.299Z,20.80
2018-05-27T02:17:48.761Z,20.80
2018-05-27T02:20:17.004Z,20.80
2018-05-27T02:22:44.496Z,20.80
2018-05-27T02:25:11.981Z,20.70
2018-05-27T02:27:39.442Z,20.70
2018-05-27T02:30:07.642Z,20.70
2018-05-27T02:32:35.112Z,20.70
2018-05-27T02:35:02.591Z,20.70
2018-05-27T02:37:30.500Z,20.70
2018-05-27T02:39:57.988Z,20.70
2018-05-27T02:42:25.486Z,20.60
2018-05-27T02:44:53.730Z,20.60
2018-05-27T02:47:21.208Z,20.60
2018-05-27T02:49:49.575Z,20.60
2018-05-27T02:52:17.050Z,20.60
2018-05-27T02:54:45.306Z,20.60
2018-05-27T02:57:12.826Z,20.60
2018-05-27T02:59:40.304Z,20.60
2018-05-27T03:02:07.831Z,20.60
2018-05-27T03:04:35.317Z,20.60
2018-05-27T03:07:02.847Z,20.60
2018-05-27T03:09:30.332Z,20.60
2018-05-27T03:11:57.830Z,20.60
2018-05-27T03:14:26.071Z,20.60
2018-05-27T03:16:54.419Z,20.50
2018-05-27T03:19:21.912Z,20.50
2018-05-27T03:21:49.378Z,20.50
2018-05-27T03:24:16.857Z,20.50
2018-05-27T03:26:45.320Z,20.50
2018-05-27T03:29:12.882Z,20.50
2018-05-27T03:31:40.339Z,20.50
2018-05-27T03:34:08.577Z,20.50
2018-05-27T03:36:36.048Z,20.50
2018-05-27T03:39:03.516Z,20.50
2018-05-27T03:41:31.031Z,20.50
2018-05-27T03:43:58.480Z,20.50
2018-05-27T03:46:25.964Z,20.60
2018-05-27T03:48:53.424Z,20.60
2018-05-27T03:51:21.025Z,20.60
2018-05-27T03:53:49.260Z,20.60
2018-05-27T03:56:16.748Z,20.60
2018-05-27T03:58:44.215Z,20.60
2018-05-27T04:01:12.487Z,20.60
2018-05-27T04:03:39.943Z,20.60
2018-05-27T04:06:19.193Z,20.60
2018-05-27T04:08:47.428Z,20.60
2018-05-27T04:11:14.914Z,20.60
2018-05-27T04:13:43.328Z,20.60
2018-05-27T04:16:10.843Z,20.60
2018-05-27T04:18:39.234Z,20.60
2018-05-27T04:21:07.480Z,20.60
2018-05-27T04:23:34.953Z,20.60
2018-05-27T04:26:02.476Z,20.60
2018-05-27T04:28:29.981Z,20.60
2018-05-27T04:30:57.531Z,20.60
2018-05-27T04:33:25.022Z,20.60
2018-05-27T04:35:52.506Z,20.60
2018-05-27T04:38:20.000Z,20.70
2018-05-27T04:40:47.478Z,20.70
2018-05-27T04:43:15.735Z,20.70
2018-05-27T04:45:43.293Z,20.70
2018-05-27T04:48:10.794Z,20.70
2018-05-27T04:50:38.272Z,20.70
2018-05-27T04:53:05.745Z,20.70
2018-05-27T04:55:33.229Z,20.70
2018-05-27T04:58:00.711Z,20.80
2018-05-27T05:00:28.200Z,20.70
2018-05-27T05:02:55.691Z,20.80
2018-05-27T05:05:23.167Z,20.80
2018-05-27T05:07:51.415Z,20.80
2018-05-27T05:10:18.988Z,20.70
2018-05-27T05:12:47.228Z,20.70
2018-05-27T05:15:14.771Z,20.70
2018-05-27T05:17:42.239Z,20.80
2018-05-27T05:20:09.783Z,20.80
2018-05-27T05:22:37.244Z,20.80
2018-05-27T05:25:04.799Z,20.80
2018-05-27T05:27:32.326Z,20.70
2018-05-27T05:30:00.577Z,20.80
2018-05-27T05:32:28.915Z,20.80
2018-05-27T05:34:56.411Z,20.80
2018-05-27T05:37:23.869Z,20.80
2018-05-27T05:39:51.346Z,20.80
2018-05-27T05:42:18.828Z,20.80
2018-05-27T05:44:46.284Z,20.70
2018-05-27T05:47:13.766Z,20.80
2018-05-27T05:49:41.234Z,20.80
2018-05-27T05:52:08.730Z,20.80
2018-05-27T05:54:36.191Z,20.80
2018-05-27T05:57:04.444Z,20.90
2018-05-27T05:59:31.911Z,20.90
2018-05-27T06:01:59.392Z,20.90
2018-05-27T06:04:27.620Z,21.10
2018-05-27T06:06:55.215Z,21.10
2018-05-27T06:09:23.451Z,21.30
2018-05-27T06:11:50.935Z,21.30
2018-05-27T06:14:19.204Z,21.30
2018-05-27T06:16:46.690Z,21.30
2018-05-27T06:19:14.908Z,21.40
2018-05-27T06:21:42.386Z,21.30
2018-05-27T06:24:09.860Z,21.40
2018-05-27T06:26:38.101Z,21.60
2018-05-27T06:29:05.618Z,21.60
2018-05-27T06:31:33.856Z,21.80
2018-05-27T06:34:01.337Z,21.80
2018-05-27T06:36:29.922Z,22.00
2018-05-27T06:38:58.167Z,22.10
2018-05-27T06:41:25.653Z,22.10
2018-05-27T06:43:53.968Z,22.30
2018-05-27T06:46:21.438Z,22.30
2018-05-27T06:48:48.919Z,22.40
2018-05-27T06:51:17.922Z,22.60
2018-05-27T06:53:45.393Z,22.60
2018-05-27T06:56:13.627Z,22.70
2018-05-27T06:58:41.129Z,22.70
2018-05-27T07:01:09.495Z,22.90
2018-05-27T07:03:36.985Z,22.90
2018-05-27T07:06:04.447Z,23.00
2018-05-27T07:08:31.943Z,23.10
2018-05-27T07:10:59.401Z,23.10
2018-05-27T07:13:26.884Z,23.10
2018-05-27T07:15:54.384Z,23.20
2018-05-27T07:18:21.943Z,23.30
2018-05-27T07:20:49.501Z,23.40
2018-05-27T07:23:16.989Z,23.50
2018-05-27T07:25:44.456Z,23.50
2018-05-27T07:28:11.985Z,23.60
2018-05-27T07:30:40.200Z,23.80
2018-05-27T07:33:07.688Z,23.80
2018-05-27T07:35:35.925Z,23.90
2018-05-27T07:38:03.440Z,23.90
2018-05-27T07:40:30.904Z,24.00
2018-05-27T07:42:58.412Z,24.00
2018-05-27T07:45:25.873Z,24.10
2018-05-27T07:47:53.390Z,24.10
2018-05-27T07:50:21.317Z,24.20
2018-05-27T07:52:49.639Z,24.30
2018-05-27T07:55:17.141Z,24.20
2018-05-27T07:57:45.451Z,24.40
2018-05-27T08:00:13.023Z,24.40
2018-05-27T08:02:40.514Z,24.50
2018-05-27T08:05:07.992Z,24.50
2018-05-27T08:07:36.221Z,24.70
2018-05-27T08:10:03.706Z,24.60
2018-05-27T08:12:31.207Z,24.70
2018-05-27T08:14:58.684Z,24.90
2018-05-27T08:17:26.946Z,24.80
2018-05-27T08:19:54.516Z,24.90
2018-05-27T08:22:22.066Z,25.00
2018-05-27T08:24:49.566Z,25.00
2018-05-27T08:27:17.145Z,25.20
2018-05-27T08:29:45.423Z,25.20
2018-05-27T08:32:13.650Z,25.10
2018-05-27T08:34:41.132Z,25.10
2018-05-27T08:37:08.592Z,25.20
2018-05-27T08:39:36.084Z,25.30
2018-05-27T08:42:04.312Z,25.50
2018-05-27T08:44:31.783Z,25.40
2018-05-27T08:46:59.243Z,25.50
2018-05-27T08:49:26.720Z,25.60
2018-05-27T08:51:54.958Z,25.60
2018-05-27T08:54:22.547Z,25.60
2018-05-27T08:56:50.005Z,25.70
2018-05-27T08:59:18.313Z,25.80
2018-05-27T09:01:45.776Z,25.70
2018-05-27T09:04:13.249Z,25.90
2018-05-27T09:06:40.734Z,26.00
2018-05-27T09:09:08.242Z,26.00
2018-05-27T09:11:35.723Z,26.10
2018-05-27T09:14:03.228Z,26.30
2018-05-27T09:16:31.487Z,26.50
2018-05-27T09:19:00.460Z,26.60
2018-05-27T09:21:27.995Z,26.60
2018-05-27T09:23:55.499Z,26.70
2018-05-27T09:26:22.982Z,26.70
2018-05-27T09:28:51.243Z,26.70
2018-05-27T09:31:18.771Z,26.60
2018-05-27T09:33:46.255Z,26.60
2018-05-27T09:36:13.820Z,26.70
2018-05-27T09:38:41.285Z,26.70
2018-05-27T09:41:09.560Z,26.90
2018-05-27T09:43:37.785Z,27.00
2018-05-27T09:46:06.223Z,27.00
2018-05-27T09:48:34.477Z,27.10
2018-05-27T09:51:02.035Z,27.10
2018-05-27T09:53:29.463Z,27.20
2018-05-27T09:55:56.953Z,27.30
2018-05-27T09:58:24.414Z,27.40
2018-05-27T10:00:52.684Z,27.60
2018-05-27T10:03:20.282Z,27.60
2018-05-27T10:05:47.769Z,27.70
2018-05-27T10:08:15.239Z,27.80
2018-05-27T10:10:42.812Z,27.80
2018-05-27T10:13:10.291Z,27.90
2018-05-27T10:15:37.782Z,28.00
2018-05-27T10:18:05.370Z,27.90
2018-05-27T10:20:32.849Z,28.00
2018-05-27T10:23:00.413Z,28.00
2018-05-27T10:25:27.908Z,28.00
2018-05-27T10:27:55.470Z,28.10
2018-05-27T10:30:22.976Z,28.00
2018-05-27T10:32:50.575Z,28.20
2018-05-27T10:35:18.050Z,28.30
2018-05-27T10:37:45.525Z,28.40
2018-05-27T10:40:12.988Z,28.50
2018-05-27T10:42:40.485Z,28.60
2018-05-27T10:45:08.717Z,28.70
2018-05-27T10:47:36.284Z,28.70
2018-05-27T10:50:03.761Z,28.80
2018-05-27T10:52:31.324Z,28.90
2018-05-27T10:54:58.798Z,28.90
2018-05-27T10:57:27.101Z,28.90
2018-05-27T10:59:54.589Z,28.90
2018-05-27T11:02:22.638Z,29.00
2018-05-27T11:04:50.107Z,28.90
2018-05-27T11:07:17.591Z,28.80
2018-05-27T11:09:45.159Z,28.80
2018-05-27T11:12:12.683Z,28.80
2018-05-27T11:14:40.528Z,28.70
2018-05-27T11:17:08.085Z,28.70
2018-05-27T11:19:35.560Z,28.70
2018-05-27T11:22:03.102Z,28.80
2018-05-27T11:24:30.568Z,28.90
2018-05-27T11:26:58.137Z,29.00
2018-05-27T11:29:25.600Z,29.00
2018-05-27T11:31:53.084Z,29.10
2018-05-27T11:34:20.594Z,29.20
2018-05-27T11:36:48.255Z,29.30
2018-05-27T11:39:15.718Z,29.40
2018-05-27T11:41:43.202Z,29.50
2018-05-27T11:44:10.666Z,29.70
2018-05-27T11:46:38.184Z,29.80
2018-05-27T11:49:05.705Z,29.90
2018-05-27T11:51:34.097Z,30.00
2018-05-27T11:54:02.428Z,30.20
2018-05-27T11:56:30.158Z,30.20
2018-05-27T11:58:57.687Z,30.10
2018-05-27T12:01:25.948Z,30.20
2018-05-27T12:03:53.423Z,30.20
2018-05-27T12:06:21.664Z,30.00
2018-05-27T12:08:49.464Z,30.00
2018-05-27T12:11:17.701Z,30.20
2018-05-27T12:13:45.180Z,30.20
2018-05-27T12:16:12.661Z,30.20
2018-05-27T12:18:40.591Z,30.30
2018-05-27T12:21:08.052Z,30.30
2018-05-27T12:23:35.543Z,30.40
2018-05-27T12:26:03.073Z,30.60
2018-05-27T12:28:30.564Z,30.80
2018-05-27T12:30:58.055Z,30.90
2018-05-27T12:33:25.556Z,31.00
2018-05-27T12:35:53.038Z,31.00
2018-05-27T12:38:20.528Z,31.10
2018-05-27T12:40:47.995Z,30.90
2018-05-27T12:43:15.497Z,30.90
2018-05-27T12:45:43.749Z,30.50
2018-05-27T12:48:11.257Z,30.50
2018-05-27T12:50:38.720Z,30.50
2018-05-27T12:53:06.502Z,30.40
2018-05-27T12:55:34.036Z,30.30
2018-05-27T12:58:01.519Z,30.20
2018-05-27T13:00:29.457Z,30.00
2018-05-27T13:02:56.971Z,29.90
2018-05-27T13:05:24.441Z,29.60
2018-05-27T13:07:52.696Z,29.60
2018-05-27T13:10:20.174Z,29.60
2018-05-27T13:12:48.416Z,29.40
2018-05-27T13:15:15.874Z,29.40
2018-05-27T13:17:43.356Z,29.40
2018-05-27T13:20:10.828Z,29.30
2018-05-27T13:22:39.076Z,29.50
2018-05-27T13:25:06.547Z,29.40
2018-05-27T13:27:34.154Z,29.30
2018-05-27T13:30:01.724Z,29.20
2018-05-27T13:32:29.178Z,29.00
2018-05-27T13:34:56.671Z,29.20
2018-05-27T13:37:24.154Z,29.20
2018-05-27T13:39:53.353Z,29.20
2018-05-27T13:42:20.863Z,29.20
2018-05-27T13:44:48.347Z,29.30
2018-05-27T13:47:15.822Z,29.30
2018-05-27T13:49:44.127Z,29.10
2018-05-27T13:52:11.614Z,29.10
2018-05-27T13:54:39.082Z,29.00
2018-05-27T13:57:06.657Z,28.90
2018-05-27T13:59:34.118Z,28.80
2018-05-27T14:02:02.393Z,28.70
2018-05-27T14:04:30.633Z,28.60
2018-05-27T14:06:58.115Z,28.60
2018-05-27T14:09:25.640Z,28.60
2018-05-27T14:11:53.164Z,28.50
2018-05-27T14:14:20.669Z,28.50
2018-05-27T14:16:48.164Z,28.30
2018-05-27T14:19:16.433Z,28.40
2018-05-27T14:21:43.898Z,28.30
2018-05-27T14:24:15.193Z,28.30
2018-05-27T14:26:43.573Z,28.10
2018-05-27T14:29:11.058Z,28.10
2018-05-27T14:31:38.569Z,28.10
2018-05-27T14:34:06.051Z,28.10
2018-05-27T14:36:37.318Z,28.10
2018-05-27T14:39:05.585Z,28.10
2018-05-27T14:41:33.044Z,28.10
2018-05-27T14:44:00.608Z,28.10
2018-05-27T14:46:28.088Z,28.00
2018-05-27T14:48:56.356Z,27.90
2018-05-27T14:51:24.591Z,27.90
2018-05-27T14:53:52.060Z,27.90
2018-05-27T14:56:19.563Z,27.90
2018-05-27T14:58:47.816Z,27.80
2018-05-27T15:01:16.044Z,27.80
2018-05-27T15:03:43.532Z,27.80
2018-05-27T15:06:11.012Z,27.70
2018-05-27T15:08:38.495Z,27.70
2018-05-27T15:11:05.969Z,27.70
2018-05-27T15:13:33.468Z,27.60
2018-05-27T15:16:00.977Z,27.60
2018-05-27T15:18:28.474Z,27.50
2018-05-27T15:23:29.764Z,27.40
2018-05-27T15:25:57.224Z,27.40
2018-05-27T15:28:24.714Z,27.30
2018-05-27T15:30:52.178Z,27.30
2018-05-27T15:33:19.651Z,27.20
2018-05-27T15:35:47.122Z,27.20
2018-05-27T15:38:14.602Z,27.20
2018-05-27T15:40:42.081Z,27.20
2018-05-27T15:43:10.325Z,27.10
2018-05-27T15:45:37.807Z,27.10
2018-05-27T15:48:05.296Z,27.10
2018-05-27T15:50:32.769Z,27.10
2018-05-27T15:53:00.243Z,27.10
2018-05-27T15:55:27.712Z,27.00
2018-05-27T15:57:55.209Z,27.00
2018-05-27T16:00:22.681Z,26.90
2018-05-27T16:02:50.160Z,26.90
2018-05-27T16:05:17.632Z,26.90
2018-05-27T16:07:45.940Z,26.80
2018-05-27T16:10:14.259Z,26.70
2018-05-27T16:12:41.760Z,26.60
2018-05-27T16:15:09.271Z,26.60
2018-05-27T16:17:36.789Z,26.50
2018-05-27T16:20:05.059Z,26.40
2018-05-27T16:22:33.414Z,26.40
2018-05-27T16:25:01.786Z,26.30
2018-05-27T16:27:29.316Z,26.20
2018-05-27T16:29:56.957Z,26.30
2018-05-27T16:32:24.805Z,26.10
2018-05-27T16:34:53.089Z,26.00
2018-05-27T16:37:21.432Z,26.00
2018-05-27T16:39:48.928Z,26.00
2018-05-27T16:42:17.164Z,25.90
2018-05-27T16:44:44.795Z,25.80
2018-05-27T16:47:12.330Z,25.90
2018-05-27T16:49:39.808Z,25.90
2018-05-27T16:52:08.189Z,25.80
2018-05-27T16:54:36.334Z,25.60
2018-05-27T16:57:03.843Z,25.60
2018-05-27T16:59:31.335Z,25.50
2018-05-27T17:01:58.811Z,25.40
2018-05-27T17:04:26.291Z,25.20
2018-05-27T17:06:53.895Z,25.30
2018-05-27T17:09:21.379Z,25.20
2018-05-27T17:11:50.320Z,25.10
2018-05-27T17:14:18.156Z,25.10
2018-05-27T17:16:45.668Z,25.00
2018-05-27T17:19:13.167Z,24.90
2018-05-27T17:21:40.637Z,24.90
2018-05-27T17:24:08.133Z,24.90
2018-05-27T17:26:36.422Z,24.50
2018-05-27T17:29:04.743Z,24.50
2018-05-27T17:31:32.224Z,24.40
2018-05-27T17:33:59.705Z,24.40
2018-05-27T17:36:27.205Z,24.30
2018-05-27T17:38:54.700Z,24.40
2018-05-27T17:41:22.187Z,24.40
2018-05-27T17:43:50.455Z,24.50
2018-05-27T17:46:17.927Z,24.50
2018-05-27T17:48:46.179Z,24.60
2018-05-27T17:51:13.665Z,24.50
2018-05-27T17:53:41.915Z,24.60
2018-05-27T17:56:09.371Z,24.60
2018-05-27T17:58:36.857Z,24.60
2018-05-27T18:01:05.342Z,24.60
2018-05-27T18:03:32.923Z,24.60
2018-05-27T18:06:00.391Z,24.40
2018-05-27T18:08:27.891Z,24.50
2018-05-27T18:10:55.399Z,24.50
2018-05-27T18:13:22.927Z,24.40
2018-05-27T18:15:51.233Z,24.20
2018-05-27T18:18:18.708Z,24.20
2018-05-27T18:20:46.169Z,24.20
2018-05-27T18:23:13.673Z,24.20
2018-05-27T18:25:41.954Z,23.80
2018-05-27T18:28:10.214Z,24.00
2018-05-27T18:30:38.438Z,23.80
2018-05-27T18:33:06.759Z,23.80
2018-05-27T18:35:34.219Z,23.90
2018-05-27T18:38:01.884Z,23.80
2018-05-27T18:40:29.347Z,23.70
2018-05-27T18:42:57.659Z,23.60
2018-05-27T18:45:25.133Z,23.50
2018-05-27T18:47:52.594Z,23.60
2018-05-27T18:50:20.069Z,23.60
2018-05-27T18:52:47.534Z,23.70
2018-05-27T18:55:15.040Z,23.70
2018-05-27T18:57:42.501Z,23.80
2018-05-27T19:00:09.989Z,23.80
2018-05-27T19:02:37.463Z,23.80
2018-05-27T19:05:05.715Z,23.80
2018-05-27T19:07:33.253Z,23.80
2018-05-27T19:10:00.721Z,23.70
2018-05-27T19:12:28.194Z,23.80
2018-05-27T19:14:55.666Z,23.80
2018-05-27T19:17:23.191Z,23.80
2018-05-27T19:19:51.401Z,23.80
2018-05-27T19:22:18.879Z,23.70
2018-05-27T19:24:47.107Z,23.70
2018-05-27T19:27:14.595Z,23.60
2018-05-27T19:29:42.053Z,23.70
2018-05-27T19:32:11.079Z,23.60
2018-05-27T19:34:39.294Z,23.70
2018-05-27T19:37:06.785Z,23.60
2018-05-27T19:39:34.353Z,23.60
2018-05-27T19:42:01.829Z,23.40
2018-05-27T19:44:29.302Z,23.30
2018-05-27T19:46:56.796Z,23.30
2018-05-27T19:49:24.297Z,23.30
2018-05-27T19:51:51.836Z,23.20
2018-05-27T19:54:20.218Z,23.10
2018-05-27T19:56:48.511Z,23.00
2018-05-27T19:59:15.983Z,23.00
2018-05-27T20:01:43.480Z,22.90
2018-05-27T20:04:10.933Z,22.90
2018-05-27T20:06:38.415Z,22.80
2018-05-27T20:09:05.890Z,22.80
2018-05-27T20:11:33.389Z,22.80
2018-05-27T20:14:00.897Z,23.00
2018-05-27T20:16:28.429Z,23.00
2018-05-27T20:18:55.914Z,23.00
2018-05-27T20:21:23.401Z,23.10
2018-05-27T20:23:51.644Z,23.10
2018-05-27T20:26:19.203Z,23.00
2018-05-27T20:28:46.688Z,23.10
2018-05-27T20:31:14.150Z,23.00
2018-05-27T20:33:41.663Z,23.00
2018-05-27T20:36:09.153Z,22.90
2018-05-27T20:38:36.638Z,22.90
2018-05-27T20:41:04.867Z,22.70
2018-05-27T20:43:32.363Z,22.60
2018-05-27T20:46:00.583Z,22.70
2018-05-27T20:48:28.076Z,22.70
2018-05-27T20:50:55.543Z,22.70
2018-05-27T20:53:23.094Z,22.60
2018-05-27T20:55:50.591Z,22.60
2018-05-27T20:58:18.821Z,22.50
2018-05-27T21:00:46.317Z,22.50
2018-05-27T21:03:13.785Z,22.50
2018-05-27T21:05:42.965Z,22.50
2018-05-27T21:08:10.433Z,22.50
2018-05-27T21:10:38.684Z,22.50
2018-05-27T21:13:06.153Z,22.50
2018-05-27T21:15:33.757Z,22.50
2018-05-27T21:18:01.229Z,22.50
2018-05-27T21:20:28.712Z,22.50
2018-05-27T21:22:56.196Z,22.40
2018-05-27T21:25:24.466Z,22.40
2018-05-27T21:27:51.937Z,22.40
2018-05-27T21:30:20.183Z,22.30
2018-05-27T21:32:47.655Z,22.30
2018-05-27T21:35:15.257Z,22.30
2018-05-27T21:37:42.726Z,22.30
2018-05-27T21:40:10.272Z,22.30
2018-05-27T21:42:37.745Z,22.30
2018-05-27T21:45:05.297Z,22.30
2018-05-27T21:47:32.755Z,22.20
2018-05-27T21:50:00.305Z,22.20
2018-05-27T21:52:27.771Z,22.20
2018-05-27T21:54:55.250Z,22.10
2018-05-27T21:57:22.777Z,22.10
2018-05-27T21:59:50.278Z,22.10
2018-05-27T22:02:23.579Z,22.00
2018-05-27T22:04:52.586Z,21.90
2018-05-27T22:07:20.835Z,22.00
2018-05-27T22:09:48.424Z,21.90
2018-05-27T22:12:16.659Z,22.00
2018-05-27T22:14:44.154Z,22.00
2018-05-27T22:17:12.389Z,22.00
2018-05-27T22:19:39.891Z,21.90
2018-05-27T22:22:08.130Z,21.90
2018-05-27T22:24:35.616Z,21.90
2018-05-27T22:27:03.177Z,21.90
2018-05-27T22:29:30.773Z,21.90
2018-05-27T22:31:58.242Z,21.80
2018-05-27T22:34:25.733Z,21.80
2018-05-27T22:36:53.309Z,21.80
2018-05-27T22:39:20.869Z,21.80
2018-05-27T22:41:48.342Z,21.80
2018-05-27T22:44:16.597Z,21.80
2018-05-27T22:46:45.571Z,21.80
2018-05-27T22:49:13.047Z,21.80
2018-05-27T22:51:42.044Z,21.80
2018-05-27T22:54:09.527Z,21.80
2018-05-27T22:56:36.997Z,21.80
2018-05-27T22:59:04.483Z,21.80
2018-05-27T23:01:31.963Z,21.80
2018-05-27T23:03:59.475Z,21.80
2018-05-27T23:06:26.934Z,21.80
2018-05-27T23:08:54.391Z,21.80
2018-05-27T23:11:21.877Z,21.70
2018-05-27T23:13:49.360Z,21.70
2018-05-27T23:16:16.925Z,21.70
2018-05-27T23:18:45.188Z,21.70
2018-05-27T23:21:12.738Z,21.70
2018-05-27T23:23:40.203Z,21.70
2018-05-27T23:26:07.763Z,21.70
2018-05-27T23:28:36.731Z,21.70
2018-05-27T23:31:04.212Z,21.70
2018-05-27T23:33:31.817Z,21.60
2018-05-27T23:35:59.296Z,21.60
2018-05-27T23:38:26.763Z,21.60
2018-05-27T23:40:55.164Z,21.60
2018-05-27T23:43:22.634Z,21.60
2018-05-27T23:45:50.896Z,21.60
2018-05-27T23:48:18.353Z,21.60
2018-05-27T23:50:45.860Z,21.60
2018-05-27T23:53:13.370Z,21.60
2018-05-27T23:55:40.835Z,21.60
2018-05-27T23:58:09.099Z,21.60
